Anzoras — EAZC — position and weather

sailwx.info

Track history (hours):
 
Tides and Currents Weather Stations Pressure Air Temp Water Temp Dewpoint Dewpoint Depression Visibility Wind Speed Wind Dir Waves Ship Positions

Anzoras

Last reported at 2017-Feb-26 06:06 UTC. Time now 2017-Feb-27 06:53 UTC.
Position N 39°33' W 000°08'.

Length 100 m; draft 4.3 m.

Type: Cargo ship. MMSI: 224376000.

Date/timePositionNaut miles runAvg speedWind from/ knotsBaromVisibWave heightAir tempDewpointWater temp
2017-Feb-26 06:06N 39°33' W 000°08'315 8.3
2017-Feb-24 16:20N 36°01' W 005°04'1212.5
2017-Feb-24 15:22N 35°59' W 005°18'1212.5
2017-Feb-24 14:26N 35°56' W 005°32'243 9.6
2017-Feb-23 13:08N 37°60' W 009°54'711.2
2017-Feb-23 12:33N 38°06' W 009°55'1111.1
2017-Feb-23 11:34N 38°17' W 009°58'1111.0
2017-Feb-23 10:33N 38°27' W 010°02'1111.1
2017-Feb-23 09:33N 38°38' W 010°05'1111.2
2017-Feb-23 08:33N 38°49' W 010°07'  
2017-Feb-18 18:25N 43°41' W 005°52'1210.7
2017-Feb-18 17:20N 43°48' W 005°40'18711.7
2017-Feb-18 01:22N 45°43' W 002°12'1012.1
2017-Feb-18 00:33N 45°48' W 002°00'1212.2
2017-Feb-17 23:33N 45°56' W 001°46'1212.2
2017-Feb-17 22:33N 46°03' W 001°32'1111.0
2017-Feb-17 21:33N 46°05' W 001°17'1210.5
2017-Feb-17 20:28N 45°57' W 001°04'  
Track history (hours):
 
Tides and Currents Weather Stations Pressure Air Temp Water Temp Dewpoint Dewpoint Depression Visibility Wind Speed Wind Dir Waves Ship Positions

Anzoras

Last reported at 2017-Feb-26 06:06 UTC. Time now 2017-Feb-27 06:53 UTC.
Position N 39°33' W 000°08'.

Length 100 m; draft 4.3 m.

Type: Cargo ship. MMSI: 224376000.

Date/timePositionNaut miles runAvg speedWind from/ knotsBaromVisibWave heightAir tempDewpointWater temp
2017-Feb-26 06:06N 39°33' W 000°08'315 8.3
2017-Feb-24 16:20N 36°01' W 005°04'1212.5
2017-Feb-24 15:22N 35°59' W 005°18'1212.5
2017-Feb-24 14:26N 35°56' W 005°32'243 9.6
2017-Feb-23 13:08N 37°60' W 009°54'711.2
2017-Feb-23 12:33N 38°06' W 009°55'1111.1
2017-Feb-23 11:34N 38°17' W 009°58'1111.0
2017-Feb-23 10:33N 38°27' W 010°02'1111.1
2017-Feb-23 09:33N 38°38' W 010°05'1111.2
2017-Feb-23 08:33N 38°49' W 010°07'  
2017-Feb-18 18:25N 43°41' W 005°52'1210.7
2017-Feb-18 17:20N 43°48' W 005°40'18711.7
2017-Feb-18 01:22N 45°43' W 002°12'1012.1
2017-Feb-18 00:33N 45°48' W 002°00'1212.2
2017-Feb-17 23:33N 45°56' W 001°46'1212.2
2017-Feb-17 22:33N 46°03' W 001°32'1111.0
2017-Feb-17 21:33N 46°05' W 001°17'1210.5
2017-Feb-17 20:28N 45°57' W 001°04'  

Dump ship's entire track history